Time;durP1;ratioP1;P1;durP2;ratioP2;P2;SDS_P1;SDS_P2;PMS_P1;PMS_P2;Temp;Humidity;BMP_temperature;BMP_pressure;BME280_temperature;BME280_humidity;BME280_pressure;Samples;Min_cycle;Max_cycle;Signal;HPM_P1;HPM_P2
2021/12/27 00:00:07;;;;;;;;;;;4.20;1.00;;;;;;5139029;27;19931;-79
2021/12/27 00:02:32;;;;;;;;;;;4.30;1.00;;;;;;5113896;27;19912;-79
2021/12/27 00:04:58;;;;;;;;;;;4.20;1.00;;;;;;5139743;27;19914;-79
2021/12/27 00:07:23;;;;;;;;;;;4.20;1.00;;;;;;5112609;27;20285;-79
2021/12/27 00:09:49;;;;;;;;;;;4.30;1.00;;;;;;5124629;27;19907;-79
2021/12/27 00:12:15;;;;;;;;;;;4.30;1.00;;;;;;5129519;27;20434;-79
2021/12/27 00:14:40;;;;;;;;;;;4.30;1.00;;;;;;5132677;27;19943;-79
2021/12/27 00:17:06;;;;;;;;;;;4.30;1.00;;;;;;5138325;27;19947;-79
2021/12/27 00:19:32;;;;;;;;;;;4.30;1.00;;;;;;5139162;27;19947;-79
2021/12/27 00:21:57;;;;;;;;;;;4.40;1.00;;;;;;5132248;27;19956;-79
2021/12/27 00:24:23;;;;;;;;;;;4.40;1.00;;;;;;5130216;27;20002;-79
2021/12/27 00:26:48;;;;;;;;;;;4.40;1.00;;;;;;5137484;27;19907;-79
2021/12/27 00:29:15;;;;;;;;;;;4.40;1.00;;;;;;5123854;27;20432;-79
2021/12/27 00:31:41;;;;;;;;;;;4.40;1.00;;;;;;5112734;28;19947;-79
2021/12/27 00:34:07;;;;;;;;;;;4.40;1.00;;;;;;5134088;27;19907;-79
2021/12/27 00:36:32;;;;;;;;;;;4.40;1.00;;;;;;5114070;28;19935;-79
2021/12/27 00:38:58;;;;;;;;;;;4.40;1.00;;;;;;5136608;27;19999;-79
2021/12/27 00:41:23;;;;;;;;;;;4.50;1.00;;;;;;5141296;27;20033;-80
2021/12/27 00:43:48;;;;;;;;;;;4.40;1.00;;;;;;5135441;27;20224;-79
2021/12/27 00:46:14;;;;;;;;;;;4.50;1.00;;;;;;5137705;27;19912;-79
2021/12/27 00:48:39;;;;;;;;;;;4.40;1.00;;;;;;5138792;27;20344;-79
2021/12/27 00:51:05;;;;;;;;;;;4.40;1.00;;;;;;5125499;27;19912;-79
2021/12/27 00:53:30;;;;;;;;;;;4.40;1.00;;;;;;5114025;27;19912;-80
2021/12/27 00:55:56;;;;;;;;;;;4.40;1.00;;;;;;5137274;27;19945;-80
2021/12/27 00:58:21;;;;;;;;;;;4.40;1.00;;;;;;5126979;27;19911;-79
2021/12/27 01:00:47;;;;;;;;;;;4.50;1.00;;;;;;5129974;27;20292;-79
2021/12/27 01:03:12;;;;;;;;;;;4.50;1.00;;;;;;5119593;27;19919;-79
2021/12/27 01:05:38;;;;;;;;;;;4.50;1.00;;;;;;5135011;27;19998;-79
2021/12/27 01:08:05;;;;;;;;;;;4.50;1.00;;;;;;5126428;27;19968;-80
2021/12/27 01:18:05;;;;;;;;;;;4.50;1.00;;;;;;5138071;27;19918;-79
2021/12/27 01:20:30;;;;;;;;;;;4.50;1.00;;;;;;5119464;27;19990;-79
2021/12/27 01:22:56;;;;;;;;;;;4.40;1.00;;;;;;5112409;27;19918;-79
2021/12/27 01:25:21;;;;;;;;;;;4.50;1.00;;;;;;5137997;27;19919;-80
2021/12/27 01:27:47;;;;;;;;;;;4.50;1.00;;;;;;5130929;27;19911;-80
2021/12/27 01:30:15;;;;;;;;;;;4.40;1.00;;;;;;5137021;27;19911;-79
2021/12/27 01:32:47;;;;;;;;;;;4.40;1.00;;;;;;5135961;27;19915;-80
2021/12/27 01:35:13;;;;;;;;;;;4.40;1.00;;;;;;5136721;27;19927;-80
2021/12/27 01:37:39;;;;;;;;;;;4.40;1.00;;;;;;5123084;27;19911;-79
2021/12/27 01:40:05;;;;;;;;;;;4.40;1.00;;;;;;5136138;27;19908;-80
2021/12/27 01:42:31;;;;;;;;;;;4.40;1.00;;;;;;5126308;27;19908;-80
2021/12/27 01:44:56;;;;;;;;;;;4.40;1.00;;;;;;5136304;27;19923;-79
2021/12/27 01:47:22;;;;;;;;;;;4.40;1.00;;;;;;5118553;27;20278;-79
2021/12/27 01:49:47;;;;;;;;;;;4.40;1.00;;;;;;5137021;27;19918;-80
2021/12/27 01:52:13;;;;;;;;;;;4.40;1.00;;;;;;5134345;27;19975;-79
2021/12/27 01:54:38;;;;;;;;;;;4.40;1.00;;;;;;5116052;27;20275;-79
2021/12/27 01:57:04;;;;;;;;;;;4.40;1.00;;;;;;5118647;27;20355;-79
2021/12/27 01:59:30;;;;;;;;;;;4.40;1.00;;;;;;5136038;27;20270;-80
2021/12/27 02:01:55;;;;;;;;;;;4.40;1.00;;;;;;5113286;27;19947;-80
2021/12/27 02:04:21;;;;;;;;;;;4.40;1.00;;;;;;5136680;27;19934;-80
2021/12/27 02:06:47;;;;;;;;;;;4.40;1.00;;;;;;5128599;27;19912;-81
2021/12/27 02:09:12;;;;;;;;;;;4.40;1.00;;;;;;5122784;27;19911;-80
2021/12/27 02:11:38;;;;;;;;;;;4.50;1.00;;;;;;5136874;27;19951;-80
2021/12/27 02:14:04;;;;;;;;;;;4.50;1.00;;;;;;5133343;27;20389;-80
2021/12/27 02:16:30;;;;;;;;;;;4.50;1.00;;;;;;5124928;27;19912;-80
2021/12/27 02:18:56;;;;;;;;;;;4.50;1.00;;;;;;5118079;27;19918;-80
2021/12/27 02:21:22;;;;;;;;;;;4.50;1.00;;;;;;5129344;27;19912;-80
2021/12/27 02:23:52;;;;;;;;;;;4.50;1.00;;;;;;5134699;27;19911;-80
2021/12/27 02:26:18;;;;;;;;;;;4.50;1.00;;;;;;5128744;27;19911;-80
2021/12/27 02:28:43;;;;;;;;;;;4.50;1.00;;;;;;5136577;27;19911;-80
2021/12/27 02:31:09;;;;;;;;;;;4.60;1.00;;;;;;5110526;27;19962;-80
2021/12/27 02:33:35;;;;;;;;;;;4.60;1.00;;;;;;5129202;27;19911;-80
2021/12/27 02:36:01;;;;;;;;;;;4.60;1.00;;;;;;5112568;27;19912;-80
2021/12/27 02:38:28;;;;;;;;;;;4.60;1.00;;;;;;5130186;27;19958;-80
2021/12/27 02:40:55;;;;;;;;;;;4.50;1.00;;;;;;5122588;27;19916;-80
2021/12/27 02:43:25;;;;;;;;;;;4.50;1.00;;;;;;5113040;28;19912;-80
2021/12/27 02:45:52;;;;;;;;;;;4.50;1.00;;;;;;5132869;27;19989;-80
2021/12/27 02:48:20;;;;;;;;;;;4.50;1.00;;;;;;5132699;27;19911;-79
2021/12/27 02:50:47;;;;;;;;;;;4.60;1.00;;;;;;5128314;27;19968;-79
2021/12/27 02:53:13;;;;;;;;;;;4.60;1.00;;;;;;5124397;27;19956;-79
2021/12/27 02:55:39;;;;;;;;;;;4.60;1.00;;;;;;5130654;27;19911;-79
2021/12/27 02:58:04;;;;;;;;;;;4.60;1.00;;;;;;5123084;27;19908;-79
2021/12/27 03:00:32;;;;;;;;;;;4.70;1.00;;;;;;5124512;27;20402;-79
2021/12/27 03:02:58;;;;;;;;;;;4.70;1.00;;;;;;5132371;27;20332;-79
2021/12/27 03:05:25;;;;;;;;;;;4.70;1.00;;;;;;5127317;27;19918;-80
2021/12/27 03:07:51;;;;;;;;;;;4.70;1.00;;;;;;5136273;27;20480;-79
2021/12/27 03:10:18;;;;;;;;;;;4.70;1.00;;;;;;5126050;27;19943;-80
2021/12/27 03:12:45;;;;;;;;;;;4.80;1.00;;;;;;5133306;27;19933;-79
2021/12/27 03:15:11;;;;;;;;;;;4.80;1.00;;;;;;5134100;27;19907;-81
2021/12/27 03:17:37;;;;;;;;;;;4.80;1.00;;;;;;5106552;28;19926;-79
2021/12/27 03:20:07;;;;;;;;;;;4.70;1.00;;;;;;5135564;28;19911;-79
2021/12/27 03:22:32;;;;;;;;;;;4.70;1.00;;;;;;5134071;27;19916;-79
2021/12/27 03:24:59;;;;;;;;;;;4.70;1.00;;;;;;5129166;28;19964;-79
2021/12/27 03:27:24;;;;;;;;;;;4.70;1.00;;;;;;5134518;27;19947;-79
2021/12/27 03:29:50;;;;;;;;;;;4.70;1.00;;;;;;5130034;27;19918;-79
2021/12/27 03:32:17;;;;;;;;;;;4.80;1.00;;;;;;5139551;27;19921;-79
2021/12/27 03:34:53;;;;;;;;;;;4.80;1.00;;;;;;5116054;27;19918;-79
2021/12/27 03:37:19;;;;;;;;;;;4.80;1.00;;;;;;5121073;27;19919;-79
2021/12/27 03:39:44;;;;;;;;;;;4.90;1.00;;;;;;5138846;27;19915;-80
2021/12/27 03:42:10;;;;;;;;;;;4.90;1.00;;;;;;5133047;27;19911;-79
2021/12/27 03:44:35;;;;;;;;;;;4.80;1.00;;;;;;5138296;27;19918;-80
2021/12/27 03:47:01;;;;;;;;;;;4.90;1.00;;;;;;5140404;27;19994;-80
2021/12/27 03:49:26;;;;;;;;;;;4.90;1.00;;;;;;5139687;27;19913;-79
2021/12/27 03:51:52;;;;;;;;;;;4.80;1.00;;;;;;5140424;27;19915;-80
2021/12/27 03:54:17;;;;;;;;;;;4.80;1.00;;;;;;5113503;27;19919;-79
2021/12/27 03:56:43;;;;;;;;;;;4.80;1.00;;;;;;5142379;27;19915;-79
2021/12/27 03:59:19;;;;;;;;;;;4.80;1.00;;;;;;5119459;27;19911;-79
2021/12/27 04:01:45;;;;;;;;;;;4.80;1.00;;;;;;5132068;27;20423;-80
2021/12/27 04:04:10;;;;;;;;;;;4.80;1.00;;;;;;5128445;27;19912;-80
2021/12/27 04:06:36;;;;;;;;;;;4.80;1.00;;;;;;5141293;27;19922;-80
2021/12/27 04:09:01;;;;;;;;;;;4.80;1.00;;;;;;5117334;27;19972;-80
2021/12/27 04:11:28;;;;;;;;;;;4.80;1.00;;;;;;5139093;27;19922;-79
2021/12/27 04:13:55;;;;;;;;;;;4.90;1.00;;;;;;5137811;27;19916;-80
2021/12/27 04:16:21;;;;;;;;;;;4.90;1.00;;;;;;5139285;27;19964;-79
2021/12/27 04:18:46;;;;;;;;;;;5.00;1.00;;;;;;5124687;27;20383;-79
2021/12/27 04:21:12;;;;;;;;;;;5.00;1.00;;;;;;5124287;27;19947;-79
2021/12/27 04:23:37;;;;;;;;;;;5.00;1.00;;;;;;5131864;27;19912;-79
2021/12/27 04:26:03;;;;;;;;;;;5.00;1.00;;;;;;5139003;27;19911;-80
2021/12/27 04:28:29;;;;;;;;;;;5.10;1.00;;;;;;5137484;27;19912;-79
2021/12/27 04:30:54;;;;;;;;;;;5.10;1.00;;;;;;5123451;27;20421;-79
2021/12/27 04:33:20;;;;;;;;;;;5.00;1.00;;;;;;5119709;27;19911;-79
2021/12/27 04:35:45;;;;;;;;;;;5.10;1.00;;;;;;5138536;27;19912;-79
2021/12/27 04:38:11;;;;;;;;;;;5.00;1.00;;;;;;5138420;27;19911;-79
2021/12/27 04:40:38;;;;;;;;;;;5.10;1.00;;;;;;5137328;27;19918;-79
2021/12/27 04:43:07;;;;;;;;;;;5.10;1.00;;;;;;5130464;27;19994;-79
2021/12/27 04:45:32;;;;;;;;;;;5.10;1.00;;;;;;5137242;27;19911;-79
2021/12/27 04:47:58;;;;;;;;;;;5.10;1.00;;;;;;5137418;27;19972;-79
2021/12/27 04:50:25;;;;;;;;;;;5.10;1.00;;;;;;5137781;27;19908;-79
2021/12/27 04:52:53;;;;;;;;;;;5.10;1.00;;;;;;5138455;27;19915;-79
2021/12/27 04:55:22;;;;;;;;;;;5.10;1.00;;;;;;5138255;27;19911;-79
2021/12/27 04:57:47;;;;;;;;;;;5.10;1.00;;;;;;5119576;27;19911;-80
2021/12/27 05:00:13;;;;;;;;;;;5.10;1.00;;;;;;5138722;27;20251;-80
2021/12/27 05:02:38;;;;;;;;;;;5.10;1.00;;;;;;5135754;27;19946;-79
2021/12/27 05:05:04;;;;;;;;;;;5.10;1.00;;;;;;5127210;27;19915;-79
2021/12/27 05:07:30;;;;;;;;;;;5.10;1.00;;;;;;5130708;27;19907;-79
2021/12/27 05:09:55;;;;;;;;;;;5.10;1.00;;;;;;5138357;27;19918;-79
2021/12/27 05:12:21;;;;;;;;;;;5.10;1.00;;;;;;5138309;27;19915;-80
2021/12/27 05:14:46;;;;;;;;;;;5.10;1.00;;;;;;5137629;27;20007;-80
2021/12/27 05:17:11;;;;;;;;;;;5.10;1.00;;;;;;5120513;27;20096;-79
2021/12/27 05:19:37;;;;;;;;;;;5.10;1.00;;;;;;5124445;27;19919;-79
2021/12/27 05:22:02;;;;;;;;;;;5.10;1.00;;;;;;5125100;27;19935;-79
2021/12/27 05:24:28;;;;;;;;;;;5.10;1.00;;;;;;5140524;27;20006;-79
2021/12/27 05:26:54;;;;;;;;;;;5.10;1.00;;;;;;5121983;27;20291;-80
2021/12/27 05:29:19;;;;;;;;;;;5.10;1.00;;;;;;5120483;27;19919;-80
2021/12/27 05:31:45;;;;;;;;;;;5.20;1.00;;;;;;5117963;27;20419;-80
2021/12/27 05:34:11;;;;;;;;;;;5.20;1.00;;;;;;5138342;27;19916;-80
2021/12/27 05:36:36;;;;;;;;;;;5.20;1.00;;;;;;5120080;27;19918;-80
2021/12/27 05:39:03;;;;;;;;;;;5.20;1.00;;;;;;5138405;27;19931;-80
2021/12/27 05:41:28;;;;;;;;;;;5.30;1.00;;;;;;5134168;27;20394;-80
2021/12/27 05:43:54;;;;;;;;;;;5.30;1.00;;;;;;5137230;27;19911;-79
2021/12/27 05:46:19;;;;;;;;;;;5.30;1.00;;;;;;5137431;27;19918;-80
2021/12/27 05:48:45;;;;;;;;;;;5.20;1.00;;;;;;5138121;27;19926;-79
2021/12/27 05:51:10;;;;;;;;;;;5.20;1.00;;;;;;5110301;27;19915;-79
2021/12/27 05:53:36;;;;;;;;;;;5.20;1.00;;;;;;5115394;27;19912;-80
2021/12/27 05:56:01;;;;;;;;;;;5.20;1.00;;;;;;5137753;27;19911;-80
2021/12/27 05:58:27;;;;;;;;;;;5.20;1.00;;;;;;5134633;27;19911;-80
2021/12/27 06:00:52;;;;;;;;;;;5.20;1.00;;;;;;5116076;27;19962;-80
2021/12/27 06:03:18;;;;;;;;;;;5.20;1.00;;;;;;5129195;27;19939;-80
2021/12/27 06:05:43;;;;;;;;;;;5.20;1.00;;;;;;5129380;27;19912;-80
2021/12/27 06:08:09;;;;;;;;;;;5.20;1.00;;;;;;5135712;27;19934;-79
2021/12/27 06:10:35;;;;;;;;;;;5.20;1.00;;;;;;5136529;27;19988;-80
2021/12/27 06:13:00;;;;;;;;;;;5.20;1.00;;;;;;5126781;27;19919;-79
2021/12/27 06:15:26;;;;;;;;;;;5.20;1.00;;;;;;5135117;27;19911;-79
2021/12/27 06:17:51;;;;;;;;;;;5.30;1.00;;;;;;5128997;27;19983;-80
2021/12/27 06:20:17;;;;;;;;;;;5.30;1.00;;;;;;5127124;27;19919;-80
2021/12/27 06:22:45;;;;;;;;;;;5.30;1.00;;;;;;5136653;27;19919;-79
2021/12/27 06:25:10;;;;;;;;;;;5.30;1.00;;;;;;5133651;27;19939;-79
2021/12/27 06:27:36;;;;;;;;;;;5.40;1.00;;;;;;5121127;27;19919;-79
2021/12/27 06:30:03;;;;;;;;;;;5.30;1.00;;;;;;5134798;27;19915;-80
2021/12/27 06:32:28;;;;;;;;;;;5.30;1.00;;;;;;5129427;27;19922;-80
2021/12/27 06:34:54;;;;;;;;;;;5.30;1.00;;;;;;5136295;27;19911;-79
2021/12/27 06:37:19;;;;;;;;;;;5.30;1.00;;;;;;5113205;27;19911;-79
2021/12/27 06:39:45;;;;;;;;;;;5.30;1.00;;;;;;5136372;27;20401;-79
2021/12/27 06:42:10;;;;;;;;;;;5.30;1.00;;;;;;5127238;27;19928;-79
2021/12/27 06:44:36;;;;;;;;;;;5.30;1.00;;;;;;5136168;27;19918;-79
2021/12/27 06:47:01;;;;;;;;;;;5.40;1.00;;;;;;5134997;27;19923;-80
2021/12/27 06:49:27;;;;;;;;;;;5.40;1.00;;;;;;5123644;27;19918;-79
2021/12/27 06:51:53;;;;;;;;;;;5.40;1.00;;;;;;5136155;27;19928;-79
2021/12/27 06:54:19;;;;;;;;;;;5.40;1.00;;;;;;5136137;27;19919;-80
2021/12/27 06:56:45;;;;;;;;;;;5.40;1.00;;;;;;5136792;27;19911;-80
2021/12/27 06:59:10;;;;;;;;;;;5.40;1.00;;;;;;5119053;27;20394;-80
2021/12/27 07:01:36;;;;;;;;;;;5.40;1.00;;;;;;5128062;27;19915;-80
2021/12/27 07:04:01;;;;;;;;;;;5.40;1.00;;;;;;5126916;27;19911;-80
2021/12/27 07:06:27;;;;;;;;;;;5.40;1.00;;;;;;5118998;27;19911;-79
2021/12/27 07:08:52;;;;;;;;;;;5.40;1.00;;;;;;5127863;28;19923;-78
2021/12/27 07:11:18;;;;;;;;;;;5.40;1.00;;;;;;5138477;27;19915;-80
2021/12/27 07:13:45;;;;;;;;;;;5.40;1.00;;;;;;5114064;27;21426;-79
2021/12/27 07:16:10;;;;;;;;;;;5.50;1.00;;;;;;5135258;28;20005;-80
2021/12/27 07:18:36;;;;;;;;;;;5.50;1.00;;;;;;5134520;28;19927;-80
2021/12/27 07:21:01;;;;;;;;;;;5.60;1.00;;;;;;5115749;28;19912;-80
2021/12/27 07:23:27;;;;;;;;;;;5.60;1.00;;;;;;5114756;28;19912;-79
2021/12/27 07:25:52;;;;;;;;;;;5.70;1.00;;;;;;5136193;27;19912;-79
2021/12/27 07:28:18;;;;;;;;;;;5.60;1.00;;;;;;5133388;27;19934;-81
2021/12/27 07:30:43;;;;;;;;;;;5.60;1.00;;;;;;5106896;27;19947;-78
2021/12/27 07:33:09;;;;;;;;;;;5.60;1.00;;;;;;5114407;27;19938;-78
2021/12/27 07:35:34;;;;;;;;;;;5.60;1.00;;;;;;5104644;28;19965;-78
2021/12/27 07:38:01;;;;;;;;;;;5.50;1.00;;;;;;5122836;28;19912;-78
2021/12/27 07:40:27;;;;;;;;;;;5.50;1.00;;;;;;5124301;27;20379;-78
2021/12/27 07:42:52;;;;;;;;;;;5.50;1.00;;;;;;5129940;27;19923;-78
2021/12/27 07:45:18;;;;;;;;;;;5.50;1.00;;;;;;5111318;28;19994;-78
2021/12/27 07:47:43;;;;;;;;;;;5.40;1.00;;;;;;5129648;28;19962;-78
2021/12/27 07:50:09;;;;;;;;;;;5.50;1.00;;;;;;5128883;28;20306;-78
2021/12/27 07:52:34;;;;;;;;;;;5.50;1.00;;;;;;5131112;27;20035;-78
2021/12/27 07:55:00;;;;;;;;;;;5.50;1.00;;;;;;5132283;27;19912;-78
2021/12/27 07:57:26;;;;;;;;;;;5.50;1.00;;;;;;5112500;28;19918;-78
2021/12/27 07:59:51;;;;;;;;;;;5.50;1.00;;;;;;5134206;28;19915;-79
2021/12/27 08:02:17;;;;;;;;;;;5.50;1.00;;;;;;5131219;27;20368;-79
2021/12/27 08:04:42;;;;;;;;;;;5.50;1.00;;;;;;5139683;27;19923;-79
2021/12/27 08:07:08;;;;;;;;;;;5.50;1.00;;;;;;5138355;28;19918;-80
2021/12/27 08:09:33;;;;;;;;;;;5.60;1.00;;;;;;5135773;27;19918;-80
2021/12/27 08:11:59;;;;;;;;;;;5.60;1.00;;;;;;5130732;28;19984;-80
2021/12/27 08:14:25;;;;;;;;;;;5.70;1.00;;;;;;5124080;27;20024;-80
2021/12/27 08:16:50;;;;;;;;;;;5.80;1.00;;;;;;5135694;27;19916;-80
2021/12/27 08:19:16;;;;;;;;;;;5.80;1.00;;;;;;5124661;27;19918;-79
2021/12/27 08:21:41;;;;;;;;;;;5.70;1.00;;;;;;5138073;27;19918;-79
2021/12/27 08:24:07;;;;;;;;;;;5.80;1.00;;;;;;5138784;27;19946;-79
2021/12/27 08:26:33;;;;;;;;;;;5.80;1.00;;;;;;5132052;27;19972;-80
2021/12/27 08:29:00;;;;;;;;;;;5.80;1.00;;;;;;5125298;27;19942;-80
2021/12/27 08:31:25;;;;;;;;;;;5.80;1.00;;;;;;5145038;27;19926;-79
2021/12/27 08:33:51;;;;;;;;;;;5.90;1.00;;;;;;5125048;27;20010;-80
2021/12/27 08:36:16;;;;;;;;;;;5.90;1.00;;;;;;5134018;27;19918;-79
2021/12/27 08:38:44;;;;;;;;;;;6.00;1.00;;;;;;5142127;27;19992;-79
2021/12/27 08:41:10;;;;;;;;;;;6.00;1.00;;;;;;5135138;27;20398;-80
2021/12/27 08:43:35;;;;;;;;;;;6.10;1.00;;;;;;5153407;27;19915;-79
2021/12/27 08:46:01;;;;;;;;;;;6.10;1.00;;;;;;5138571;27;19911;-80
2021/12/27 08:48:27;;;;;;;;;;;6.20;1.00;;;;;;5139755;27;19911;-79
2021/12/27 08:50:52;;;;;;;;;;;6.30;1.00;;;;;;5140355;27;19968;-79
2021/12/27 08:53:18;;;;;;;;;;;6.40;1.00;;;;;;5132522;27;19911;-80
2021/12/27 08:55:43;;;;;;;;;;;6.40;1.00;;;;;;5127089;27;19932;-79
2021/12/27 08:58:09;;;;;;;;;;;6.50;1.00;;;;;;5122204;27;19912;-80
2021/12/27 09:00:34;;;;;;;;;;;6.50;1.00;;;;;;5131374;27;20367;-80
2021/12/27 09:03:00;;;;;;;;;;;6.60;1.00;;;;;;5136285;27;19912;-80
2021/12/27 09:05:25;;;;;;;;;;;6.60;1.00;;;;;;5130555;27;19915;-79
2021/12/27 09:07:51;;;;;;;;;;;6.70;1.00;;;;;;5134373;27;19955;-79
2021/12/27 09:10:17;;;;;;;;;;;6.70;1.00;;;;;;5115194;27;19918;-80
2021/12/27 09:12:42;;;;;;;;;;;6.80;1.00;;;;;;5138547;27;19931;-78
2021/12/27 09:15:08;;;;;;;;;;;6.90;1.00;;;;;;5142827;27;19911;-78
2021/12/27 09:17:34;;;;;;;;;;;6.90;1.00;;;;;;5124771;27;19922;-80
2021/12/27 09:19:59;;;;;;;;;;;6.90;1.00;;;;;;5124154;27;19911;-80
2021/12/27 09:22:25;;;;;;;;;;;6.90;1.00;;;;;;5134419;27;19922;-79
2021/12/27 09:24:50;;;;;;;;;;;6.90;1.00;;;;;;5144216;27;19911;-79
2021/12/27 09:27:16;;;;;;;;;;;7.00;1.00;;;;;;5127225;27;19918;-79
2021/12/27 09:29:43;;;;;;;;;;;7.10;1.00;;;;;;5127016;27;20002;-80
2021/12/27 09:32:09;;;;;;;;;;;7.10;1.00;;;;;;5140679;27;20329;-80
2021/12/27 09:34:35;;;;;;;;;;;7.20;1.00;;;;;;5117419;27;19936;-80
2021/12/27 09:37:00;;;;;;;;;;;7.20;1.00;;;;;;5125627;27;19916;-80
2021/12/27 09:39:26;;;;;;;;;;;7.20;1.00;;;;;;5142848;27;19918;-80
2021/12/27 09:41:51;;;;;;;;;;;7.20;1.00;;;;;;5142171;27;19927;-80
2021/12/27 09:44:17;;;;;;;;;;;7.10;1.00;;;;;;5142956;27;20467;-80
2021/12/27 09:46:42;;;;;;;;;;;7.20;1.00;;;;;;5140512;27;19941;-80
2021/12/27 09:49:11;;;;;;;;;;;7.30;1.00;;;;;;5139318;27;19911;-80
2021/12/27 09:51:37;;;;;;;;;;;7.40;1.00;;;;;;5133337;27;19916;-80
2021/12/27 09:54:03;;;;;;;;;;;7.50;1.00;;;;;;5124581;27;19915;-80
2021/12/27 09:56:29;;;;;;;;;;;7.50;1.00;;;;;;5125296;27;19921;-80
2021/12/27 09:58:55;;;;;;;;;;;7.50;1.00;;;;;;5133914;27;20002;-80
2021/12/27 10:01:21;;;;;;;;;;;7.60;1.00;;;;;;5127588;27;20027;-80
2021/12/27 10:03:48;;;;;;;;;;;7.70;1.00;;;;;;5119130;27;20392;-79
2021/12/27 10:06:14;;;;;;;;;;;7.80;1.00;;;;;;5141244;27;19963;-80
2021/12/27 10:08:47;;;;;;;;;;;7.90;1.00;;;;;;5138231;27;19998;-79
2021/12/27 10:11:36;;;;;;;;;;;7.80;1.00;;;;;;5114350;27;19924;-78
2021/12/27 10:14:07;;;;;;;;;;;7.90;1.00;;;;;;5120070;27;19915;-78
2021/12/27 10:16:37;;;;;;;;;;;7.90;1.00;;;;;;5117978;27;20064;-78
2021/12/27 10:19:05;;;;;;;;;;;8.00;1.00;;;;;;5134315;27;20509;-79
2021/12/27 10:21:31;;;;;;;;;;;8.30;1.00;;;;;;5131224;27;19916;-79
2021/12/27 10:24:07;;;;;;;;;;;8.50;1.00;;;;;;5110341;27;19907;-79
2021/12/27 10:26:33;;;;;;;;;;;8.80;1.00;;;;;;5121473;27;20063;-79
2021/12/27 10:29:09;;;;;;;;;;;9.20;99.90;;;;;;5129012;27;19958;-79
2021/12/27 10:31:55;;;;;;;;;;;9.50;99.90;;;;;;5118790;27;19915;-79
2021/12/27 10:34:21;;;;;;;;;;;9.80;99.90;;;;;;5130803;27;19972;-78
2021/12/27 10:36:59;;;;;;;;;;;9.90;1.00;;;;;;5130199;27;20326;-78
2021/12/27 10:39:29;;;;;;;;;;;10.10;1.00;;;;;;5117317;27;20010;-78
2021/12/27 10:42:04;;;;;;;;;;;10.20;99.90;;;;;;5124932;27;19919;-78
2021/12/27 10:44:30;;;;;;;;;;;10.00;99.90;;;;;;5133859;27;19911;-78
2021/12/27 10:46:56;;;;;;;;;;;9.80;99.90;;;;;;5133387;27;19911;-78
2021/12/27 10:49:22;;;;;;;;;;;9.60;1.00;;;;;;5118306;27;20359;-78
2021/12/27 10:51:47;;;;;;;;;;;9.50;1.00;;;;;;5133105;27;19983;-79
2021/12/27 10:54:13;;;;;;;;;;;9.40;1.00;;;;;;5118006;27;19924;-79
2021/12/27 10:56:49;;;;;;;;;;;9.30;15.50;;;;;;5132903;27;20285;-78
2021/12/27 10:59:18;;;;;;;;;;;9.20;59.10;;;;;;5109758;27;19911;-78
2021/12/27 11:01:46;;;;;;;;;;;9.10;99.90;;;;;;5127992;27;19918;-78
2021/12/27 11:04:15;;;;;;;;;;;9.20;99.90;;;;;;5117770;27;19950;-78
2021/12/27 11:06:41;;;;;;;;;;;9.40;99.40;;;;;;5125132;27;20002;-79
2021/12/27 11:09:06;;;;;;;;;;;9.60;1.00;;;;;;5113850;27;19958;-78
2021/12/27 11:11:32;;;;;;;;;;;9.70;1.00;;;;;;5132025;27;20000;-77
2021/12/27 11:13:57;;;;;;;;;;;10.00;1.00;;;;;;5132357;27;20002;-78
2021/12/27 11:16:26;;;;;;;;;;;10.10;99.90;;;;;;5128115;27;19912;-78
2021/12/27 11:18:51;;;;;;;;;;;10.20;99.90;;;;;;5115654;28;19919;-79
2021/12/27 11:21:23;;;;;;;;;;;10.30;92.00;;;;;;5135237;28;20375;-79
2021/12/27 11:23:49;;;;;;;;;;;10.40;1.00;;;;;;5119181;27;19978;-79
2021/12/27 11:26:20;;;;;;;;;;;10.40;1.00;;;;;;5133055;28;19912;-79
2021/12/27 11:28:46;;;;;;;;;;;10.30;1.00;;;;;;5117979;28;20344;-79
2021/12/27 11:31:23;;;;;;;;;;;10.20;1.00;;;;;;5134823;28;19919;-79
2021/12/27 11:33:55;;;;;;;;;;;10.00;1.00;;;;;;5116719;28;19918;-78
2021/12/27 11:36:22;;;;;;;;;;;9.80;1.00;;;;;;5127843;28;19908;-79
2021/12/27 11:38:48;;;;;;;;;;;9.60;99.90;;;;;;5124218;28;19994;-78
2021/12/27 11:41:23;;;;;;;;;;;9.50;99.90;;;;;;5134005;28;19907;-79
2021/12/27 11:43:53;;;;;;;;;;;9.40;1.00;;;;;;5121038;28;19934;-78
2021/12/27 11:46:20;;;;;;;;;;;9.20;1.00;;;;;;5126665;28;19907;-79
2021/12/27 11:48:50;;;;;;;;;;;9.20;87.40;;;;;;5127073;27;19933;-79
2021/12/27 11:51:36;;;;;;;;;;;9.10;99.90;;;;;;5143669;27;20001;-79
2021/12/27 11:54:03;;;;;;;;;;;9.10;99.90;;;;;;5137681;27;19911;-79
2021/12/27 11:56:38;;;;;;;;;;;9.10;99.90;;;;;;5129758;27;19938;-79
2021/12/27 11:59:35;;;;;;;;;;;9.20;99.90;;;;;;5129460;27;19934;-79
2021/12/27 12:02:04;;;;;;;;;;;9.20;99.90;;;;;;5117322;27;20506;-79
2021/12/27 12:04:38;;;;;;;;;;;9.40;99.90;;;;;;5136574;27;20001;-78
2021/12/27 12:07:05;;;;;;;;;;;9.50;99.90;;;;;;5137755;27;19912;-78
2021/12/27 12:09:30;;;;;;;;;;;9.40;99.90;;;;;;5136464;27;19990;-79
2021/12/27 12:12:02;;;;;;;;;;;9.50;99.90;;;;;;5118630;27;19983;-79
2021/12/27 12:14:29;;;;;;;;;;;9.40;99.90;;;;;;5135791;27;19911;-79
2021/12/27 12:16:55;;;;;;;;;;;9.40;99.90;;;;;;5118322;27;19919;-79
2021/12/27 12:19:35;;;;;;;;;;;9.50;99.90;;;;;;5137265;27;19912;-78
2021/12/27 12:22:01;;;;;;;;;;;9.60;99.90;;;;;;5136294;27;19911;-78
2021/12/27 12:24:26;;;;;;;;;;;9.70;99.90;;;;;;5125959;27;19915;-78
2021/12/27 12:26:58;;;;;;;;;;;9.80;99.90;;;;;;5119828;27;19916;-78
2021/12/27 12:29:25;;;;;;;;;;;9.90;99.90;;;;;;5120099;27;19911;-79
2021/12/27 12:32:01;;;;;;;;;;;9.90;99.90;;;;;;5127470;27;20287;-79
2021/12/27 12:34:27;;;;;;;;;;;9.90;99.90;;;;;;5137040;27;19911;-78
2021/12/27 12:36:54;;;;;;;;;;;10.00;93.90;;;;;;5139635;27;19919;-78
2021/12/27 12:39:21;;;;;;;;;;;10.00;48.90;;;;;;5133758;27;19916;-79
2021/12/27 12:41:47;;;;;;;;;;;10.10;70.10;;;;;;5131090;27;20006;-79
2021/12/27 12:44:14;;;;;;;;;;;10.20;43.20;;;;;;5115614;27;19944;-78
2021/12/27 12:46:45;;;;;;;;;;;10.20;1.00;;;;;;5121113;27;20336;-78
2021/12/27 12:49:14;;;;;;;;;;;10.30;1.00;;;;;;5139327;27;19907;-78
2021/12/27 12:51:43;;;;;;;;;;;10.30;1.00;;;;;;5135161;27;19991;-77
2021/12/27 12:54:23;;;;;;;;;;;10.40;1.00;;;;;;5119135;27;19911;-78
2021/12/27 12:56:53;;;;;;;;;;;10.40;1.00;;;;;;5135578;27;19911;-79
2021/12/27 12:59:20;;;;;;;;;;;10.40;1.00;;;;;;5133302;27;19994;-78
2021/12/27 13:01:57;;;;;;;;;;;10.40;1.00;;;;;;5127635;27;19912;-78
2021/12/27 13:04:23;;;;;;;;;;;10.30;1.00;;;;;;5112500;27;19916;-79
2021/12/27 13:06:48;;;;;;;;;;;10.30;22.60;;;;;;5132312;27;20078;-78
2021/12/27 13:09:13;;;;;;;;;;;10.30;11.00;;;;;;5136476;27;19919;-79
2021/12/27 13:11:39;;;;;;;;;;;10.30;25.50;;;;;;5135552;27;20374;-78
2021/12/27 13:14:05;;;;;;;;;;;10.40;56.70;;;;;;5116400;27;19971;-78
2021/12/27 13:16:31;;;;;;;;;;;10.50;53.80;;;;;;5135916;27;19923;-79
2021/12/27 13:19:06;;;;;;;;;;;10.50;1.00;;;;;;5128791;27;19915;-80
2021/12/27 13:21:31;;;;;;;;;;;10.50;1.00;;;;;;5135277;27;19911;-80
2021/12/27 13:24:02;;;;;;;;;;;10.50;1.00;;;;;;5134770;27;19995;-79
2021/12/27 13:26:27;;;;;;;;;;;10.50;1.00;;;;;;5130515;27;19912;-79
2021/12/27 13:28:53;;;;;;;;;;;10.50;3.00;;;;;;5138748;27;19956;-79
2021/12/27 13:31:18;;;;;;;;;;;10.30;12.10;;;;;;5140770;27;19916;-78
2021/12/27 13:33:45;;;;;;;;;;;10.30;82.50;;;;;;5132176;27;20371;-79
2021/12/27 13:36:15;;;;;;;;;;;10.30;99.90;;;;;;5133974;27;19926;-80
2021/12/27 13:38:45;;;;;;;;;;;10.10;99.90;;;;;;5117907;27;19911;-79
2021/12/27 13:41:12;;;;;;;;;;;10.20;99.90;;;;;;5127548;27;19911;-80
2021/12/27 13:43:51;;;;;;;;;;;10.10;99.90;;;;;;5125965;27;19937;-79
2021/12/27 13:46:18;;;;;;;;;;;9.90;99.90;;;;;;5135708;27;19911;-79
2021/12/27 13:48:43;;;;;;;;;;;9.90;99.90;;;;;;5134736;27;19912;-79
2021/12/27 13:51:09;;;;;;;;;;;10.00;99.90;;;;;;5122528;27;19915;-79
2021/12/27 13:53:35;;;;;;;;;;;9.90;99.90;;;;;;5124269;27;20435;-79
2021/12/27 13:56:27;;;;;;;;;;;9.90;99.90;;;;;;5115627;27;19919;-79
2021/12/27 13:58:52;;;;;;;;;;;9.80;99.90;;;;;;5135201;27;19922;-78
2021/12/27 14:01:22;;;;;;;;;;;9.80;99.90;;;;;;5116234;27;19911;-78
2021/12/27 14:03:49;;;;;;;;;;;9.70;99.90;;;;;;5108882;27;19967;-78
2021/12/27 14:06:16;;;;;;;;;;;9.60;99.90;;;;;;5137316;27;19918;-78
2021/12/27 14:08:55;;;;;;;;;;;9.60;99.90;;;;;;5124833;27;19915;-78
2021/12/27 14:11:21;;;;;;;;;;;9.70;99.90;;;;;;5131352;27;19923;-78
2021/12/27 14:13:47;;;;;;;;;;;9.70;99.90;;;;;;5116333;27;20434;-78
2021/12/27 14:16:31;;;;;;;;;;;9.70;99.90;;;;;;5133874;27;19919;-78
2021/12/27 14:19:10;;;;;;;;;;;9.60;99.90;;;;;;5126951;27;19986;-78
2021/12/27 14:21:54;;;;;;;;;;;9.70;99.90;;;;;;5134080;27;20343;-78
2021/12/27 14:24:33;;;;;;;;;;;9.70;99.90;;;;;;5129576;27;19966;-78
2021/12/27 14:27:00;;;;;;;;;;;9.70;99.90;;;;;;5134410;27;19919;-79
2021/12/27 14:29:25;;;;;;;;;;;9.80;99.90;;;;;;5130863;27;19917;-78
2021/12/27 14:31:53;;;;;;;;;;;9.80;99.90;;;;;;5117976;27;20006;-79
2021/12/27 14:34:38;;;;;;;;;;;9.70;99.90;;;;;;5123147;27;20299;-78
2021/12/27 14:37:04;;;;;;;;;;;9.70;99.90;;;;;;5132117;27;19915;-78
2021/12/27 14:39:30;;;;;;;;;;;9.70;99.90;;;;;;5126319;27;19911;-78
2021/12/27 14:41:56;;;;;;;;;;;9.60;99.90;;;;;;5113410;27;19966;-79
2021/12/27 14:44:22;;;;;;;;;;;9.50;1.00;;;;;;5115380;27;19916;-78